Time;durP1;ratioP1;P1;durP2;ratioP2;P2;SDS_P1;SDS_P2;PMS_P1;PMS_P2;Temp;Humidity;BMP_temperature;BMP_pressure;BME280_temperature;BME280_humidity;BME280_pressure;Samples;Min_cycle;Max_cycle;Signal;HPM_P1;HPM_P2
2022/03/28 00:00:59;;;;;;;9.47;8.57;;;12.30;28.80;;;;;;20847;6803;117758;-73
2022/03/28 00:03:23;;;;;;;8.90;8.00;;;12.30;28.80;;;;;;20850;6804;117223;-73
2022/03/28 00:05:49;;;;;;;12.60;11.05;;;12.00;29.00;;;;;;20606;6804;336414;-73
2022/03/28 00:08:16;;;;;;;10.43;8.60;;;12.10;29.60;;;;;;20859;6804;118122;-73
2022/03/28 00:10:41;;;;;;;9.82;8.82;;;12.10;29.50;;;;;;20641;6804;307000;-73
2022/03/28 00:13:09;;;;;;;8.20;7.45;;;12.20;29.50;;;;;;20858;6804;116248;-73
2022/03/28 00:15:34;;;;;;;10.03;7.20;;;12.10;29.50;;;;;;20854;6804;117148;-73
2022/03/28 00:18:01;;;;;;;8.63;7.83;;;11.50;30.00;;;;;;20831;6804;117221;-72
2022/03/28 00:20:27;;;;;;;9.20;7.97;;;11.50;30.40;;;;;;20630;6804;335465;-73
2022/03/28 00:22:52;;;;;;;10.50;8.43;;;11.70;30.20;;;;;;20626;6804;318282;-73
2022/03/28 00:25:17;;;;;;;8.70;7.83;;;12.00;30.30;;;;;;20846;6804;117744;-73
2022/03/28 00:27:43;;;;;;;9.03;8.13;;;12.00;30.00;;;;;;20612;6804;311729;-73
2022/03/28 00:30:09;;;;;;;8.77;7.93;;;12.00;30.00;;;;;;20631;6804;340014;-73
2022/03/28 00:32:35;;;;;;;9.10;6.87;;;12.20;29.60;;;;;;20849;6804;117613;-73
2022/03/28 00:35:00;;;;;;;9.50;8.52;;;12.00;29.60;;;;;;20637;6804;276678;-73
2022/03/28 00:37:26;;;;;;;10.07;7.50;;;12.00;29.60;;;;;;20855;6802;119769;-73
2022/03/28 00:39:52;;;;;;;8.00;7.17;;;11.50;30.00;;;;;;20828;6803;117355;-73
2022/03/28 00:42:18;;;;;;;8.90;8.00;;;11.40;29.90;;;;;;20638;6803;308490;-73
2022/03/28 00:44:43;;;;;;;9.40;8.60;;;11.50;31.30;;;;;;20645;6803;277093;-73
2022/03/28 00:47:09;;;;;;;8.37;7.33;;;11.90;30.50;;;;;;20850;6803;117258;-73
2022/03/28 00:49:34;;;;;;;9.73;7.45;;;11.70;30.40;;;;;;20839;6803;117051;-73
2022/03/28 00:52:01;;;;;;;19.63;16.13;;;11.10;30.80;;;;;;20817;6803;119637;-73
2022/03/28 00:54:26;;;;;;;15.63;13.85;;;11.10;30.80;;;;;;20642;6803;326194;-73
2022/03/28 00:56:52;;;;;;;13.02;10.85;;;11.20;30.50;;;;;;20644;6803;306578;-73
2022/03/28 00:59:17;;;;;;;22.17;20.07;;;11.60;30.10;;;;;;20621;6803;327920;-73
2022/03/28 01:01:45;;;;;;;11.13;9.90;;;11.80;30.00;;;;;;20835;6803;118136;-73
2022/03/28 01:04:09;;;;;;;10.97;9.13;;;11.60;30.00;;;;;;20636;6803;279375;-72
2022/03/28 01:06:37;;;;;;;9.37;8.30;;;11.60;30.40;;;;;;20853;6803;117744;-73
2022/03/28 01:09:03;;;;;;;11.77;9.83;;;11.40;30.40;;;;;;20857;6803;116990;-72
2022/03/28 01:11:29;;;;;;;14.93;12.80;;;11.30;31.00;;;;;;20649;6803;281170;-73
2022/03/28 01:13:55;;;;;;;14.07;11.03;;;11.30;31.00;;;;;;20619;6803;309620;-73
2022/03/28 01:16:21;;;;;;;16.03;13.10;;;11.40;30.70;;;;;;20835;6804;119336;-73
2022/03/28 01:18:50;;;;;;;13.20;11.33;;;11.50;30.70;;;;;;20847;6804;117557;-73
2022/03/28 01:21:17;;;;;;;12.50;11.30;;;11.20;30.90;;;;;;20645;6804;306989;-73
2022/03/28 01:23:42;;;;;;;13.53;10.17;;;11.30;31.00;;;;;;20832;6804;117958;-73
2022/03/28 01:26:08;;;;;;;12.17;9.20;;;11.20;30.80;;;;;;20848;6804;117677;-73
2022/03/28 01:28:33;;;;;;;9.27;8.23;;;10.90;30.80;;;;;;20852;6804;117388;-73
2022/03/28 01:31:00;;;;;;;14.23;8.83;;;10.50;31.30;;;;;;20848;6804;118210;-73
2022/03/28 01:33:25;;;;;;;11.05;9.93;;;10.50;31.30;;;;;;20631;6804;306817;-73
2022/03/28 01:35:53;;;;;;;11.00;9.87;;;10.70;31.90;;;;;;20614;6804;306708;-73
2022/03/28 01:38:19;;;;;;;10.70;9.07;;;11.10;31.40;;;;;;20635;6804;306704;-73
2022/03/28 01:40:52;;;;;;;9.73;8.82;;;11.40;30.70;;;;;;20628;6804;318684;-73
2022/03/28 01:43:18;;;;;;;9.70;8.90;;;11.60;30.30;;;;;;20640;6804;336311;-73
2022/03/28 01:45:43;;;;;;;9.80;8.63;;;11.70;30.00;;;;;;20831;6804;118413;-74
2022/03/28 01:48:10;;;;;;;11.43;9.13;;;11.30;30.30;;;;;;20645;6802;276700;-74
2022/03/28 01:50:35;;;;;;;11.40;10.30;;;11.30;30.30;;;;;;20855;6803;117187;-74
2022/03/28 01:53:01;;;;;;;9.23;8.03;;;11.10;30.50;;;;;;20853;6803;117548;-73
2022/03/28 01:55:26;;;;;;;9.47;8.47;;;10.70;30.80;;;;;;20846;6803;117515;-74
2022/03/28 01:57:52;;;;;;;12.07;8.65;;;10.40;31.30;;;;;;20829;6803;117906;-74
2022/03/28 02:00:17;;;;;;;8.70;7.77;;;10.20;31.70;;;;;;20844;6803;117777;-74
2022/03/28 02:02:43;;;;;;;10.48;8.68;;;10.00;32.10;;;;;;20844;6803;117571;-74
2022/03/28 02:05:12;;;;;;;10.70;9.20;;;9.80;33.30;;;;;;20625;6803;340257;-74
2022/03/28 02:07:40;;;;;;;10.17;9.10;;;9.90;33.80;;;;;;20860;6803;117214;-74
2022/03/28 02:10:09;;;;;;;10.40;9.27;;;9.90;33.60;;;;;;20637;6803;277484;-75
2022/03/28 02:12:34;;;;;;;12.00;8.50;;;10.00;33.00;;;;;;20854;6803;117235;-74
2022/03/28 02:15:00;;;;;;;12.98;11.63;;;10.00;32.80;;;;;;20646;6803;305955;-74
2022/03/28 02:17:26;;;;;;;17.07;13.77;;;10.10;33.00;;;;;;20851;6803;114790;-74
2022/03/28 02:19:52;;;;;;;15.87;12.03;;;10.00;32.80;;;;;;20829;6803;119749;-74
2022/03/28 02:22:17;;;;;;;10.87;9.73;;;9.70;34.00;;;;;;20849;6803;120602;-73
2022/03/28 02:24:43;;;;;;;11.10;9.80;;;9.50;34.30;;;;;;20637;6803;307288;-74
2022/03/28 02:27:10;;;;;;;13.87;9.10;;;9.70;34.70;;;;;;20852;6804;121366;-74
2022/03/28 02:29:35;;;;;;;10.10;8.93;;;9.60;34.30;;;;;;20858;6804;117105;-74
2022/03/28 02:32:01;;;;;;;9.53;7.60;;;9.20;35.20;;;;;;20834;6804;118771;-73
2022/03/28 02:34:27;;;;;;;9.40;8.50;;;9.20;34.70;;;;;;20853;6804;117984;-74
2022/03/28 02:36:53;;;;;;;10.30;9.30;;;9.10;35.00;;;;;;20640;6804;325441;-74
2022/03/28 02:39:19;;;;;;;9.13;8.33;;;9.30;34.90;;;;;;20847;6804;117406;-74
2022/03/28 02:41:44;;;;;;;10.57;9.47;;;9.30;34.80;;;;;;20613;6804;306401;-74
2022/03/28 02:44:10;;;;;;;11.12;9.70;;;9.50;34.90;;;;;;20631;6804;281814;-74
2022/03/28 02:46:36;;;;;;;9.43;8.37;;;9.80;34.40;;;;;;20849;6804;117109;-74
2022/03/28 02:49:01;;;;;;;11.90;9.23;;;9.80;34.30;;;;;;20852;6804;119781;-74
2022/03/28 02:51:27;;;;;;;9.07;8.17;;;9.20;35.10;;;;;;20844;6804;117364;-73
2022/03/28 02:53:54;;;;;;;10.83;9.67;;;9.20;35.00;;;;;;20626;6804;277487;-75
2022/03/28 02:56:20;;;;;;;9.57;8.63;;;9.40;35.00;;;;;;20847;6804;117511;-74
2022/03/28 02:58:46;;;;;;;9.97;8.20;;;9.20;35.70;;;;;;20852;6804;117377;-74
2022/03/28 03:01:12;;;;;;;10.47;9.40;;;9.20;35.00;;;;;;20638;6802;281325;-74
2022/03/28 03:03:37;;;;;;;10.05;8.63;;;9.40;35.20;;;;;;20854;6803;118342;-74
2022/03/28 03:06:03;;;;;;;9.93;8.87;;;9.40;35.10;;;;;;20827;6803;117040;-74
2022/03/28 03:08:28;;;;;;;10.10;7.73;;;9.20;35.20;;;;;;20849;6803;117204;-74
2022/03/28 03:10:54;;;;;;;11.25;8.43;;;9.10;35.90;;;;;;20854;6803;122828;-74
2022/03/28 03:13:20;;;;;;;8.40;7.70;;;8.80;35.90;;;;;;20858;6803;117015;-74
2022/03/28 03:15:46;;;;;;;10.67;8.57;;;8.80;35.90;;;;;;20834;6803;117034;-74
2022/03/28 03:18:11;;;;;;;11.88;10.10;;;8.80;36.10;;;;;;20646;6803;306185;-74
2022/03/28 03:20:37;;;;;;;8.87;8.00;;;9.10;36.10;;;;;;20850;6803;118956;-73
2022/03/28 03:23:03;;;;;;;11.27;9.87;;;9.50;35.40;;;;;;20659;6803;309317;-73
2022/03/28 03:25:29;;;;;;;10.68;9.55;;;9.50;35.40;;;;;;20642;6803;306500;-73
2022/03/28 03:27:54;;;;;;;14.93;8.90;;;9.90;34.80;;;;;;20832;6803;117431;-74
2022/03/28 03:30:21;;;;;;;9.43;7.87;;;9.70;35.10;;;;;;20852;6803;117651;-74
2022/03/28 03:32:46;;;;;;;10.53;8.60;;;9.60;35.00;;;;;;20850;6803;118312;-73
2022/03/28 03:35:12;;;;;;;10.25;9.25;;;9.40;35.50;;;;;;20633;6803;312022;-74
2022/03/28 03:37:37;;;;;;;9.27;8.48;;;9.60;35.40;;;;;;20854;6804;117135;-74
2022/03/28 03:40:04;;;;;;;11.20;10.00;;;9.60;35.10;;;;;;20615;6804;307011;-74
2022/03/28 03:42:31;;;;;;;10.63;8.77;;;9.80;35.10;;;;;;20848;6804;117320;-74
2022/03/28 03:44:55;;;;;;;8.63;7.87;;;9.80;34.90;;;;;;20850;6804;117246;-73
2022/03/28 03:47:21;;;;;;;10.90;9.48;;;9.50;34.90;;;;;;20648;6804;306440;-71
2022/03/28 03:49:47;;;;;;;10.17;8.90;;;9.70;34.90;;;;;;20827;6804;117382;-80
2022/03/28 03:52:14;;;;;;;10.65;9.70;;;9.80;34.70;;;;;;20634;6804;322846;-75
2022/03/28 03:54:39;;;;;;;13.27;9.87;;;9.80;34.70;;;;;;20639;6804;277469;-76
2022/03/28 03:57:06;;;;;;;10.03;9.13;;;9.90;34.20;;;;;;20861;6804;117605;-75
2022/03/28 03:59:31;;;;;;;9.20;8.33;;;9.90;34.20;;;;;;20856;6804;118279;-75
2022/03/28 04:01:57;;;;;;;9.83;8.90;;;9.60;34.50;;;;;;20837;6804;129289;-75
2022/03/28 04:04:22;;;;;;;9.57;8.57;;;9.40;34.90;;;;;;20857;6804;117129;-71
2022/03/28 04:06:49;;;;;;;10.47;9.23;;;9.30;35.50;;;;;;20638;6804;277417;-73
2022/03/28 04:09:14;;;;;;;9.17;8.30;;;9.30;35.50;;;;;;20847;6804;117211;-74
2022/03/28 04:11:40;;;;;;;10.80;9.73;;;9.30;35.30;;;;;;20625;6802;277030;-74
2022/03/28 04:14:05;;;;;;;11.13;9.73;;;9.40;35.60;;;;;;20851;6803;117884;-74
2022/03/28 04:16:31;;;;;;;10.88;9.73;;;9.40;35.30;;;;;;20636;6803;338471;-71
2022/03/28 04:18:56;;;;;;;10.53;9.47;;;9.50;35.40;;;;;;20853;6803;121331;-73
2022/03/28 04:21:22;;;;;;;10.90;9.17;;;9.50;35.20;;;;;;20853;6803;117258;-71
2022/03/28 04:23:48;;;;;;;9.77;8.87;;;9.20;35.30;;;;;;20829;6803;117780;-78
2022/03/28 04:26:14;;;;;;;10.80;9.70;;;9.00;35.50;;;;;;20647;6803;281168;-77
2022/03/28 04:28:39;;;;;;;15.30;9.35;;;9.10;35.50;;;;;;20854;6803;117095;-70
2022/03/28 04:31:04;;;;;;;9.83;7.97;;;9.10;35.40;;;;;;20852;6803;117082;-70
2022/03/28 04:33:30;;;;;;;15.85;9.10;;;8.90;35.60;;;;;;20854;6803;118220;-71
2022/03/28 04:35:55;;;;;;;10.00;8.63;;;8.80;35.90;;;;;;20837;6803;117926;-67
2022/03/28 04:38:24;;;;;;;10.40;8.47;;;8.60;36.00;;;;;;20862;6803;121984;-68
2022/03/28 04:40:47;;;;;;;10.83;9.80;;;8.50;36.30;;;;;;20622;6803;276593;-68
2022/03/28 04:43:12;;;;;;;11.65;10.55;;;8.80;37.10;;;;;;20639;6803;277878;-68
2022/03/28 04:45:38;;;;;;;10.77;9.87;;;9.30;35.80;;;;;;20628;6803;306115;-69
2022/03/28 04:48:03;;;;;;;11.17;10.03;;;9.60;35.40;;;;;;20604;6803;277433;-69
2022/03/28 04:50:29;;;;;;;11.52;9.93;;;9.80;35.00;;;;;;20624;6804;334567;-70
2022/03/28 04:52:55;;;;;;;11.13;10.10;;;10.00;34.10;;;;;;20625;6804;335855;-69
2022/03/28 04:55:20;;;;;;;11.10;9.73;;;10.10;34.00;;;;;;20830;6804;117818;-69
2022/03/28 04:57:46;;;;;;;11.23;10.13;;;9.90;35.00;;;;;;20605;6804;306651;-69
2022/03/28 05:00:12;;;;;;;10.03;9.07;;;9.90;34.60;;;;;;20835;6804;117561;-69
2022/03/28 05:02:37;;;;;;;11.40;10.27;;;9.80;34.80;;;;;;20620;6804;306993;-68
2022/03/28 05:05:03;;;;;;;11.30;10.20;;;9.80;34.60;;;;;;20642;6804;281986;-68
2022/03/28 05:07:30;;;;;;;11.63;10.50;;;9.90;34.20;;;;;;20642;6804;306602;-67
2022/03/28 05:09:56;;;;;;;11.60;10.43;;;10.10;33.00;;;;;;20634;6804;310495;-67
2022/03/28 05:12:21;;;;;;;11.45;10.30;;;10.10;32.80;;;;;;20641;6804;277257;-66
2022/03/28 05:14:47;;;;;;;11.30;10.13;;;10.10;32.70;;;;;;20630;6804;311297;-69
2022/03/28 05:17:14;;;;;;;15.20;9.60;;;10.10;32.70;;;;;;20845;6804;117350;-70
2022/03/28 05:19:38;;;;;;;14.43;8.97;;;9.80;34.00;;;;;;20842;6804;117135;-70
2022/03/28 05:22:04;;;;;;;15.35;9.77;;;9.30;34.50;;;;;;20833;6804;117336;-66
2022/03/28 05:24:29;;;;;;;10.77;8.70;;;8.90;35.00;;;;;;20857;6802;117772;-69
2022/03/28 05:26:55;;;;;;;9.32;8.52;;;8.70;35.50;;;;;;20853;6803;123779;-69
2022/03/28 05:29:24;;;;;;;10.70;9.40;;;8.40;35.80;;;;;;20855;6803;120765;-70
2022/03/28 05:31:47;;;;;;;13.33;10.60;;;8.30;36.10;;;;;;20611;6803;306517;-69
2022/03/28 05:34:13;;;;;;;10.70;9.60;;;8.50;36.40;;;;;;20856;6803;117467;-74
2022/03/28 05:36:38;;;;;;;11.80;10.68;;;8.50;36.20;;;;;;20640;6803;335551;-69
2022/03/28 05:39:04;;;;;;;11.00;10.00;;;8.60;36.20;;;;;;20856;6803;117711;-72
2022/03/28 05:41:31;;;;;;;11.52;10.43;;;8.60;36.10;;;;;;20636;6803;307007;-77
2022/03/28 05:43:57;;;;;;;12.30;10.38;;;8.70;36.40;;;;;;20618;6803;336902;-70
2022/03/28 05:46:22;;;;;;;12.50;9.53;;;9.00;35.90;;;;;;20844;6803;118006;-71
2022/03/28 05:48:49;;;;;;;15.40;9.60;;;8.50;36.20;;;;;;20850;6803;117439;-68
2022/03/28 05:51:14;;;;;;;11.73;10.50;;;8.50;36.20;;;;;;20641;6803;279457;-72
2022/03/28 05:53:40;;;;;;;10.50;9.65;;;8.60;36.70;;;;;;20605;6803;277220;-69
2022/03/28 05:56:05;;;;;;;12.27;9.33;;;9.00;36.60;;;;;;20850;6803;118188;-69
2022/03/28 05:58:32;;;;;;;10.27;9.27;;;9.00;36.50;;;;;;20851;6803;117491;-69
2022/03/28 06:00:59;;;;;;;12.07;10.50;;;9.00;36.80;;;;;;20630;6804;286370;-71
2022/03/28 06:03:23;;;;;;;11.70;10.55;;;9.30;36.40;;;;;;20622;6804;328261;-72
2022/03/28 06:05:49;;;;;;;13.35;10.77;;;9.70;35.70;;;;;;20614;6804;306510;-72
2022/03/28 06:08:14;;;;;;;11.03;9.87;;;10.10;34.10;;;;;;20850;6804;117925;-70
2022/03/28 06:10:40;;;;;;;14.33;9.90;;;10.10;34.20;;;;;;20848;6804;117285;-71
2022/03/28 06:13:06;;;;;;;13.83;10.37;;;9.90;35.60;;;;;;20631;6804;302786;-67
2022/03/28 06:15:36;;;;;;;11.50;10.50;;;10.40;33.60;;;;;;20637;6804;337659;-67
2022/03/28 06:17:59;;;;;;;10.97;9.67;;;10.40;33.60;;;;;;20824;6804;118589;-69
2022/03/28 06:20:24;;;;;;;11.48;10.27;;;10.50;33.60;;;;;;20638;6804;306911;-68
2022/03/28 06:22:50;;;;;;;12.23;9.60;;;10.60;33.30;;;;;;20853;6804;117430;-69
2022/03/28 06:25:16;;;;;;;11.98;10.77;;;10.50;33.30;;;;;;20648;6804;276610;-69
2022/03/28 06:27:41;;;;;;;11.83;10.63;;;10.70;33.10;;;;;;20618;6804;305763;-68
2022/03/28 06:30:07;;;;;;;14.33;9.60;;;10.90;32.80;;;;;;20851;6804;118576;-70
2022/03/28 06:32:33;;;;;;;11.48;10.20;;;10.80;32.90;;;;;;20612;6804;307373;-70
2022/03/28 06:34:58;;;;;;;12.40;10.40;;;10.80;33.20;;;;;;20857;6802;119134;-70
2022/03/28 06:37:24;;;;;;;10.53;9.50;;;10.80;33.30;;;;;;20856;6803;117442;-71
2022/03/28 06:39:49;;;;;;;11.77;10.70;;;10.60;33.60;;;;;;20623;6803;283608;-71
2022/03/28 06:42:16;;;;;;;12.20;10.13;;;10.80;33.60;;;;;;20855;6803;117659;-71
2022/03/28 06:44:42;;;;;;;11.63;10.47;;;10.70;33.50;;;;;;20633;6803;306947;-71
2022/03/28 06:47:09;;;;;;;10.83;9.83;;;10.90;33.30;;;;;;20851;6803;117776;-70
2022/03/28 06:49:34;;;;;;;12.07;10.80;;;11.00;33.30;;;;;;20639;6803;311168;-69
2022/03/28 06:52:00;;;;;;;12.23;11.00;;;11.60;33.00;;;;;;20623;6803;281761;-70
2022/03/28 06:54:26;;;;;;;8.10;7.40;;;11.60;32.90;;;;;;20851;6803;117463;-69
2022/03/28 06:56:52;;;;;;;12.33;9.63;;;11.60;33.00;;;;;;20843;6803;117490;-69
2022/03/28 06:59:19;;;;;;;12.05;10.52;;;11.60;33.50;;;;;;20642;6803;280602;-70
2022/03/28 07:01:44;;;;;;;11.10;9.73;;;11.90;32.40;;;;;;20826;6803;122232;-69
2022/03/28 07:04:10;;;;;;;13.85;11.02;;;12.00;32.30;;;;;;20635;6803;279080;-72
2022/03/28 07:06:35;;;;;;;13.17;11.23;;;12.30;31.80;;;;;;20639;6803;277053;-71
2022/03/28 07:09:04;;;;;;;14.77;11.73;;;12.70;31.20;;;;;;20635;6803;306473;-70
2022/03/28 07:11:26;;;;;;;11.70;10.50;;;12.90;30.90;;;;;;20839;6803;117482;-70
2022/03/28 07:13:51;;;;;;;11.30;10.25;;;12.80;31.10;;;;;;20833;6804;117458;-73
2022/03/28 07:16:17;;;;;;;12.33;11.10;;;12.60;31.50;;;;;;20638;6804;276994;-70
2022/03/28 07:18:43;;;;;;;13.07;11.77;;;12.70;31.50;;;;;;20637;6804;306527;-70
2022/03/28 07:21:09;;;;;;;14.70;11.57;;;13.40;30.40;;;;;;20638;6804;306561;-70
2022/03/28 07:23:37;;;;;;;10.87;9.77;;;13.40;30.40;;;;;;20865;6804;117354;-70
2022/03/28 07:26:04;;;;;;;12.07;10.90;;;13.20;30.80;;;;;;20841;6804;117290;-69
2022/03/28 07:28:31;;;;;;;11.17;9.97;;;13.10;30.70;;;;;;20852;6804;117524;-70
2022/03/28 07:30:56;;;;;;;13.18;11.90;;;13.00;31.00;;;;;;20634;6804;310555;-70
2022/03/28 07:33:22;;;;;;;12.13;11.03;;;13.30;30.50;;;;;;20848;6804;117491;-70
2022/03/28 07:35:47;;;;;;;13.50;12.20;;;13.40;30.60;;;;;;20622;6804;335491;-70
2022/03/28 07:38:13;;;;;;;18.50;11.68;;;13.70;30.30;;;;;;20854;6804;118081;-69
2022/03/28 07:40:38;;;;;;;14.75;12.57;;;13.80;30.30;;;;;;20636;6804;340140;-72
2022/03/28 07:43:04;;;;;;;12.07;10.93;;;14.00;30.10;;;;;;20846;6804;118069;-70
2022/03/28 07:45:30;;;;;;;13.82;12.50;;;14.20;30.20;;;;;;20623;6804;340085;-70
2022/03/28 07:47:55;;;;;;;12.97;11.57;;;14.40;29.60;;;;;;20831;6802;121370;-71
2022/03/28 07:50:22;;;;;;;14.57;12.40;;;14.80;29.30;;;;;;20635;6803;306696;-68
2022/03/28 07:52:50;;;;;;;14.07;12.70;;;15.20;29.30;;;;;;20639;6803;320625;-67
2022/03/28 07:55:13;;;;;;;14.77;13.27;;;15.20;29.00;;;;;;20631;6803;282647;-68
2022/03/28 07:57:43;;;;;;;14.60;13.13;;;15.90;28.40;;;;;;20634;6803;277496;-68
2022/03/28 08:00:10;;;;;;;14.70;13.17;;;15.90;28.40;;;;;;20486;6803;282037;-68
2022/03/28 08:02:32;;;;;;;15.20;12.37;;;16.20;28.20;;;;;;20828;6803;117473;-67
2022/03/28 08:04:59;;;;;;;13.70;11.80;;;16.20;28.50;;;;;;20848;6803;117454;-68
2022/03/28 08:07:25;;;;;;;15.17;12.17;;;16.00;28.60;;;;;;20613;6803;306918;-70
2022/03/28 08:09:51;;;;;;;16.57;12.87;;;16.20;28.50;;;;;;20822;6803;117957;-71
2022/03/28 08:12:17;;;;;;;15.63;12.07;;;16.20;28.60;;;;;;20840;6803;117754;-71
2022/03/28 08:14:44;;;;;;;15.00;13.40;;;16.30;28.20;;;;;;20631;6803;291377;-70
2022/03/28 08:17:10;;;;;;;14.48;13.15;;;16.70;27.90;;;;;;20635;6803;277616;-70
2022/03/28 08:19:36;;;;;;;14.55;12.77;;;16.70;27.90;;;;;;20638;6803;335572;-71
2022/03/28 08:22:01;;;;;;;14.73;13.30;;;17.00;27.60;;;;;;20599;6803;305033;-69
2022/03/28 08:24:27;;;;;;;14.30;12.90;;;17.50;27.60;;;;;;20623;6804;307331;-69
2022/03/28 08:26:53;;;;;;;14.13;12.70;;;17.50;27.60;;;;;;20849;6804;124826;-69
2022/03/28 08:29:19;;;;;;;15.88;13.95;;;17.60;27.60;;;;;;20642;6804;308244;-69
2022/03/28 08:31:44;;;;;;;15.90;13.33;;;17.70;27.20;;;;;;20596;6804;311085;-69
2022/03/28 08:34:10;;;;;;;14.03;12.60;;;18.00;26.90;;;;;;20848;6804;123939;-69
2022/03/28 08:36:35;;;;;;;13.57;12.17;;;18.00;27.00;;;;;;20851;6804;124339;-72
2022/03/28 08:39:01;;;;;;;14.50;13.00;;;17.80;27.30;;;;;;20637;6804;306645;-70
2022/03/28 08:41:26;;;;;;;16.85;14.20;;;18.10;27.70;;;;;;20632;6804;277813;-71
2022/03/28 08:43:52;;;;;;;15.10;13.57;;;18.40;27.30;;;;;;20626;6804;276772;-70
2022/03/28 08:46:18;;;;;;;18.23;14.27;;;18.80;26.70;;;;;;20632;6804;310853;-68
2022/03/28 08:48:43;;;;;;;14.27;12.60;;;19.00;26.30;;;;;;20848;6804;117557;-68
2022/03/28 08:51:09;;;;;;;16.10;13.13;;;19.00;26.50;;;;;;20845;6804;117397;-69
2022/03/28 08:53:34;;;;;;;16.02;13.18;;;18.90;26.70;;;;;;20634;6804;335917;-70
2022/03/28 08:56:00;;;;;;;14.73;12.67;;;19.00;26.10;;;;;;20829;6804;124533;-69
2022/03/28 08:58:25;;;;;;;17.20;13.95;;;19.10;26.40;;;;;;20630;6802;340014;-70
2022/03/28 09:00:51;;;;;;;21.07;13.67;;;19.30;26.40;;;;;;20851;6803;123281;-69
2022/03/28 09:03:16;;;;;;;15.95;14.25;;;19.40;26.30;;;;;;20631;6803;307310;-69
2022/03/28 09:05:47;;;;;;;16.77;13.05;;;19.60;25.50;;;;;;20838;6803;117457;-69
2022/03/28 09:08:08;;;;;;;15.97;14.27;;;19.60;25.80;;;;;;20617;6803;311469;-70
2022/03/28 09:10:33;;;;;;;16.80;12.73;;;19.80;25.60;;;;;;20842;6803;117283;-70
2022/03/28 09:12:59;;;;;;;16.27;14.30;;;20.00;25.30;;;;;;20635;6803;276601;-70
2022/03/28 09:15:25;;;;;;;17.77;12.73;;;20.00;25.30;;;;;;20846;6803;117855;-70
2022/03/28 09:17:54;;;;;;;19.53;14.47;;;20.00;25.60;;;;;;20629;6803;281988;-70
2022/03/28 09:20:19;;;;;;;16.13;14.27;;;20.30;25.30;;;;;;20624;6803;306159;-70
2022/03/28 09:22:45;;;;;;;17.10;14.17;;;20.60;25.50;;;;;;20627;6803;297007;-70
2022/03/28 09:25:12;;;;;;;15.43;13.87;;;21.00;25.20;;;;;;20845;6803;118113;-70
2022/03/28 09:27:37;;;;;;;15.83;13.13;;;21.10;25.40;;;;;;20845;6803;117377;-70
2022/03/28 09:30:15;;;;;;;15.67;14.07;;;21.00;25.60;;;;;;20612;6803;295343;-69
2022/03/28 09:32:41;;;;;;;20.20;14.23;;;21.20;24.30;;;;;;20840;6803;117502;-69
2022/03/28 09:35:10;;;;;;;18.77;13.30;;;21.20;25.00;;;;;;20850;6803;117350;-70
2022/03/28 09:38:01;;;;;;;16.30;12.73;;;21.20;25.00;;;;;;20843;6804;117442;-69
2022/03/28 09:40:27;;;;;;;20.53;15.23;;;21.10;25.30;;;;;;20622;6804;307899;-69
2022/03/28 09:42:53;;;;;;;18.77;14.80;;;21.40;24.70;;;;;;20612;6804;281203;-69
2022/03/28 09:45:20;;;;;;;16.93;14.50;;;21.90;24.10;;;;;;20635;6804;309945;-69
2022/03/28 09:48:02;;;;;;;16.77;14.17;;;22.20;23.60;;;;;;20800;6804;117493;-70
2022/03/28 09:50:31;;;;;;;15.83;14.23;;;22.30;24.00;;;;;;20820;6804;117712;-69
2022/03/28 09:52:57;;;;;;;16.17;13.43;;;22.20;24.10;;;;;;20843;6804;117393;-69
2022/03/28 09:55:22;;;;;;;16.27;13.83;;;22.10;24.30;;;;;;20799;6804;117922;-69
2022/03/28 09:57:48;;;;;;;16.33;13.27;;;22.10;24.50;;;;;;20835;6804;117524;-69
2022/03/28 10:00:14;;;;;;;17.60;15.23;;;22.30;23.70;;;;;;20644;6804;280692;-69
2022/03/28 10:02:40;;;;;;;17.60;15.80;;;22.30;23.70;;;;;;20632;6804;307376;-69
2022/03/28 10:05:06;;;;;;;21.50;15.67;;;22.80;22.80;;;;;;20624;6804;338996;-69
2022/03/28 10:07:33;;;;;;;19.80;16.33;;;23.10;22.60;;;;;;20634;6804;306381;-69
2022/03/28 10:09:58;;;;;;;17.30;15.43;;;23.40;22.30;;;;;;20607;6802;336594;-69
2022/03/28 10:12:24;;;;;;;16.27;14.57;;;23.70;22.20;;;;;;20845;6803;118001;-69
2022/03/28 10:14:51;;;;;;;18.15;16.17;;;23.70;22.60;;;;;;20621;6803;277063;-69
2022/03/28 10:17:15;;;;;;;17.93;16.13;;;23.90;22.80;;;;;;20609;6803;295812;-69
2022/03/28 10:19:41;;;;;;;17.92;16.02;;;24.10;22.20;;;;;;20612;6803;306965;-70
2022/03/28 10:22:06;;;;;;;20.73;17.50;;;24.30;21.70;;;;;;20835;6803;117675;-68
2022/03/28 10:24:34;;;;;;;16.60;14.60;;;24.30;22.20;;;;;;20620;6803;298451;-70
2022/03/28 10:26:57;;;;;;;15.83;14.23;;;24.30;22.20;;;;;;20841;6803;117807;-72
2022/03/28 10:29:23;;;;;;;14.70;13.27;;;24.30;22.40;;;;;;20848;6803;117895;-70
2022/03/28 10:31:52;;;;;;;17.70;15.90;;;24.20;22.20;;;;;;20611;6803;310835;-71
2022/03/28 10:34:18;;;;;;;16.33;14.60;;;24.30;21.40;;;;;;20864;6803;118845;-73
2022/03/28 10:36:45;;;;;;;18.63;14.50;;;24.20;21.90;;;;;;20772;6803;117451;-76
2022/03/28 10:39:33;;;;;;;16.07;13.83;;;24.20;21.80;;;;;;20852;6803;117424;-73
2022/03/28 10:42:25;;;;;;;17.17;15.37;;;24.20;21.90;;;;;;20619;6803;433851;-82
2022/03/28 10:45:04;;;;;;;14.60;13.20;;;24.40;20.80;;;;;;20852;6803;117448;-72
2022/03/28 10:47:39;;;;;;;14.97;13.47;;;24.50;21.00;;;;;;20830;6804;117486;-74
2022/03/28 10:50:04;;;;;;;16.65;14.30;;;24.40;21.50;;;;;;20606;6804;277926;-73
2022/03/28 10:52:31;;;;;;;13.80;12.60;;;24.80;21.10;;;;;;20856;6804;123828;-72
2022/03/28 10:54:56;;;;;;;14.87;13.48;;;24.70;20.90;;;;;;20644;6804;276690;-73
2022/03/28 10:57:25;;;;;;;14.77;13.50;;;25.00;19.50;;;;;;20605;6804;277392;-73
2022/03/28 11:00:08;;;;;;;15.13;11.67;;;25.30;18.60;;;;;;20799;6804;118001;-73
2022/03/28 11:02:34;;;;;;;12.83;11.73;;;25.30;19.20;;;;;;20827;6804;118414;-73
2022/03/28 11:05:07;;;;;;;14.25;12.90;;;25.00;19.20;;;;;;20641;6804;281110;-71
2022/03/28 11:07:32;;;;;;;13.83;12.50;;;25.00;18.80;;;;;;20633;6804;310087;-68
2022/03/28 11:10:04;;;;;;;13.67;12.47;;;25.20;17.60;;;;;;20621;6804;282701;-72
2022/03/28 11:12:37;;;;;;;13.67;12.47;;;25.40;17.60;;;;;;20635;6804;302367;-71
2022/03/28 11:15:01;;;;;;;12.27;11.17;;;25.60;17.30;;;;;;20840;6804;123294;-69
2022/03/28 11:17:29;;;;;;;13.27;11.97;;;25.40;17.70;;;;;;20828;6804;117466;-71
2022/03/28 11:20:15;;;;;;;13.20;11.93;;;25.20;18.00;;;;;;20824;6804;117927;-74
2022/03/28 11:22:47;;;;;;;14.03;12.60;;;25.00;18.60;;;;;;20642;6802;282481;-71
2022/03/28 11:25:32;;;;;;;12.50;11.30;;;25.10;18.20;;;;;;20636;6803;309040;-72
2022/03/28 11:28:22;;;;;;;11.77;10.88;;;25.70;16.70;;;;;;20620;6803;306483;-71
2022/03/28 11:31:12;;;;;;;12.63;11.53;;;25.50;17.20;;;;;;20854;6803;117363;-71
2022/03/28 11:33:38;;;;;;;12.07;11.07;;;25.50;17.50;;;;;;20628;6803;305100;-71
2022/03/28 11:36:10;;;;;;;16.03;12.73;;;25.50;17.50;;;;;;20619;6803;281539;-71
2022/03/28 11:38:35;;;;;;;14.52;13.15;;;25.60;17.50;;;;;;20636;6803;307568;-72
2022/03/28 11:41:01;;;;;;;15.60;13.30;;;25.70;17.10;;;;;;20639;6803;281704;-72
2022/03/28 11:43:34;;;;;;;13.23;12.00;;;25.80;17.20;;;;;;20854;6803;117306;-76
2022/03/28 11:46:01;;;;;;;13.00;11.70;;;25.60;17.70;;;;;;20848;6803;119291;-72
2022/03/28 11:48:25;;;;;;;12.70;11.60;;;25.40;18.40;;;;;;20858;6803;118136;-75
2022/03/28 11:50:53;;;;;;;13.30;11.87;;;24.90;18.60;;;;;;20852;6803;118462;-70
2022/03/28 11:53:17;;;;;;;11.73;10.63;;;24.90;18.60;;;;;;20850;6803;120882;-73
2022/03/28 11:55:49;;;;;;;13.73;11.97;;;24.80;18.50;;;;;;20617;6803;280721;-70
2022/03/28 11:58:15;;;;;;;13.80;12.60;;;25.00;17.60;;;;;;20621;6803;301433;-71
2022/03/28 12:00:40;;;;;;;13.15;12.05;;;25.30;17.70;;;;;;20644;6804;310101;-71
2022/03/28 12:03:06;;;;;;;13.10;11.70;;;25.60;17.00;;;;;;20860;6804;117919;-71
2022/03/28 12:05:36;;;;;;;17.17;11.77;;;25.30;17.70;;;;;;20851;6804;117452;-74
2022/03/28 12:08:06;;;;;;;14.20;12.95;;;25.30;17.70;;;;;;20614;6804;280761;-71
2022/03/28 12:10:34;;;;;;;11.87;10.87;;;25.30;16.80;;;;;;20826;6804;117933;-72
2022/03/28 12:12:59;;;;;;;11.67;10.60;;;25.20;17.40;;;;;;20850;6804;116919;-72
2022/03/28 12:15:29;;;;;;;13.10;11.87;;;25.00;17.90;;;;;;20854;6804;118511;-72
2022/03/28 12:17:57;;;;;;;12.23;11.20;;;24.80;17.80;;;;;;20815;6804;120102;-71
2022/03/28 12:20:20;;;;;;;12.53;11.17;;;24.70;17.80;;;;;;20845;6804;119291;-70
2022/03/28 12:22:47;;;;;;;12.57;11.30;;;24.60;18.10;;;;;;20847;6804;117914;-71